CheckWX is a tool to help pilots better visualize weather data.  It is not intended as a substitute for an official pre-flight weather briefing.

13:09:05 UTC

KSEG METAR
Penn Valley Airport
Selinsgrove, Pennsylvania, USA
Current

1 hour ago

KSEG 181206Z AUTO 20004KT 4SM BR FEW007 OVC020 01/M01 A2980 RMK AO2 SNE00 P0000 T00061006
Observed
Feb-18 @ 12:06 UTC
Wind
  • 200° at 4 KTS
Visibility
4 SM
Flight Rules
MVFR
Conditions
Mist
Cloud Levels
  • Few at 700' AGL
  • Overcast at 2,000' AGL
Temperature
C / 34°F
Dewpoint
-1°C / 30°F
Humidity
87%
Altimeter
29.8" Hg
Pressure
1009.12 hPa
Current Rain
0.01"
Previous

1 hour ago

KSEG 181153Z AUTO VRB03KT 3SM -SN BR BKN007 OVC021 01/M01 A2980 RMK AO2 SNB50 CIG 004V010 SLP097 P0000 60000 70004 I6002 T00061006 10006 20000 53010
Observed
Feb-18 @ 11:53 UTC
Wind
  • Variable at 3 KTS
Visibility
3 SM
Flight Rules
IFR
Conditions
Light Snow, Mist
Cloud Levels
  • Broken at 700' AGL
  • Overcast at 2,100' AGL
Temperature
C / 34°F
Dewpoint
-1°C / 30°F
Humidity
87%
Altimeter
29.8" Hg
Pressure
1009.7 hPa
Current Rain
0.01"
Previous

2 hours ago

KSEG 181053Z AUTO 23003KT 3SM BR OVC006 01/M01 A2979 RMK AO2 PRESRR SLP093 T00061006
Observed
Feb-18 @ 10:53 UTC
Wind
  • 230° at 3 KTS
Visibility
3 SM
Flight Rules
IFR
Conditions
Mist
Cloud Levels
  • Overcast at 600' AGL
Temperature
C / 34°F
Dewpoint
-1°C / 30°F
Humidity
87%
Altimeter
29.79" Hg
Pressure
1009.3 hPa